Time;durP1;ratioP1;P1;durP2;ratioP2;P2;SDS_P1;SDS_P2;PMS_P1;PMS_P2;Temp;Humidity;BMP_temperature;BMP_pressure;BME280_temperature;BME280_humidity;BME280_pressure;Samples;Min_cycle;Max_cycle;Signal;HPM_P1;HPM_P2
2021/04/06 00:00:10;;;;;;;1.80;0.60;;;;;9.10;101145.00;;;;5090424;28;20207;-77
2021/04/06 00:02:41;;;;;;;3.22;0.75;;;;;9.10;101147.00;;;;5090265;28;20199;-77
2021/04/06 00:05:10;;;;;;;8.98;1.40;;;;;9.10;101145.00;;;;5090525;28;20214;-78
2021/04/06 00:07:39;;;;;;;4.88;0.70;;;;;9.10;101139.00;;;;5090742;28;20277;-77
2021/04/06 00:10:10;;;;;;;10.48;1.00;;;;;9.10;101143.00;;;;5089421;28;20190;-77
2021/04/06 00:12:39;;;;;;;7.53;1.08;;;;;9.10;101141.00;;;;5091486;28;20195;-77
2021/04/06 00:15:08;;;;;;;9.40;1.05;;;;;9.10;101141.00;;;;5090097;28;20202;-77
2021/04/06 00:17:38;;;;;;;9.48;1.33;;;;;9.10;101133.00;;;;5085728;28;20214;-78
2021/04/06 00:20:08;;;;;;;5.13;1.52;;;;;9.10;101149.00;;;;5084459;28;20203;-77
2021/04/06 00:22:35;;;;;;;4.47;0.63;;;;;9.00;101150.00;;;;5088098;28;20194;-77
2021/04/06 00:25:06;;;;;;;1.92;0.40;;;;;9.00;101144.00;;;;5089000;28;20222;-77
2021/04/06 00:27:38;;;;;;;4.70;0.68;;;;;9.00;101142.00;;;;5088500;28;20195;-77
2021/04/06 00:30:08;;;;;;;1.67;0.80;;;;;9.00;101143.00;;;;5069921;28;20641;-77
2021/04/06 00:32:36;;;;;;;4.55;0.55;;;;;9.00;101154.00;;;;5089043;28;20768;-77
2021/04/06 00:35:06;;;;;;;4.32;1.38;;;;;8.90;101160.00;;;;5089401;28;20207;-77
2021/04/06 00:37:34;;;;;;;4.95;0.70;;;;;8.90;101146.00;;;;5088282;28;20187;-77
2021/04/06 00:40:06;;;;;;;3.85;0.80;;;;;8.90;101140.00;;;;5089131;28;20194;-77
2021/04/06 00:42:36;;;;;;;4.18;0.68;;;;;8.90;101140.00;;;;5090290;28;20198;-77
2021/04/06 00:45:08;;;;;;;7.60;0.90;;;;;8.80;101150.00;;;;5089567;28;20520;-77
2021/04/06 00:47:35;;;;;;;7.43;0.90;;;;;8.80;101149.00;;;;5089315;28;20186;-77
2021/04/06 00:50:07;;;;;;;7.45;1.50;;;;;8.80;101158.00;;;;5048449;28;20212;-77
2021/04/06 00:52:34;;;;;;;3.13;0.70;;;;;8.80;101158.00;;;;5049426;28;20670;-77
2021/04/06 00:55:01;;;;;;;4.80;0.95;;;;;8.80;101155.00;;;;5033987;28;20200;-77
2021/04/06 00:57:32;;;;;;;6.95;1.40;;;;;8.80;101163.00;;;;5045144;28;20207;-77
2021/04/06 01:00:17;;;;;;;9.85;0.73;;;;;8.70;101165.00;;;;5048984;28;20670;-77
2021/04/06 01:03:02;;;;;;;2.67;0.93;;;;;8.70;101157.00;;;;5048041;28;20571;-76
2021/04/06 01:05:30;;;;;;;3.00;0.70;;;;;8.80;101156.00;;;;5048931;28;20548;-77
2021/04/06 01:07:57;;;;;;;4.00;0.80;;;;;8.80;101158.00;;;;5038432;28;20203;-77
2021/04/06 01:10:26;;;;;;;9.15;0.90;;;;;8.80;101158.00;;;;5041262;28;20207;-77
2021/04/06 01:12:55;;;;;;;4.03;0.60;;;;;8.90;101174.00;;;;5049665;28;20196;-77
2021/04/06 01:15:22;;;;;;;2.65;0.68;;;;;8.90;101180.00;;;;5048843;28;20191;-77
2021/04/06 01:17:50;;;;;;;4.65;0.90;;;;;8.90;101183.00;;;;5048938;28;20203;-77
2021/04/06 01:20:18;;;;;;;8.38;1.00;;;;;8.90;101173.00;;;;5048862;28;20200;-77
2021/04/06 01:22:47;;;;;;;10.20;0.80;;;;;9.00;101166.00;;;;5048669;28;20739;-77
2021/04/06 01:25:19;;;;;;;6.68;1.00;;;;;8.90;101149.00;;;;5032995;28;20216;-77
2021/04/06 01:27:47;;;;;;;5.28;1.08;;;;;9.00;101156.00;;;;5046392;28;20684;-77
2021/04/06 01:30:15;;;;;;;5.82;1.05;;;;;9.00;101159.00;;;;5048514;28;20195;-77
2021/04/06 01:32:43;;;;;;;2.95;0.52;;;;;8.90;101161.00;;;;5048493;28;20203;-77
2021/04/06 01:35:10;;;;;;;9.07;0.90;;;;;8.90;101162.00;;;;5048859;28;20278;-77
2021/04/06 01:37:37;;;;;;;3.40;0.77;;;;;8.90;101164.00;;;;5041858;28;20200;-77
2021/04/06 01:40:06;;;;;;;10.50;1.45;;;;;8.90;101158.00;;;;5035828;28;20255;-77
2021/04/06 01:42:36;;;;;;;6.97;1.55;;;;;8.80;101162.00;;;;5048843;28;20212;-77
2021/04/06 01:45:08;;;;;;;3.67;0.70;;;;;8.80;101157.00;;;;5032118;28;20219;-77
2021/04/06 01:47:35;;;;;;;5.32;0.80;;;;;8.80;101151.00;;;;5048505;28;20230;-77
2021/04/06 01:50:04;;;;;;;4.75;0.77;;;;;8.70;101147.00;;;;5087224;28;20240;-77
2021/04/06 01:52:31;;;;;;;2.08;0.95;;;;;8.70;101136.00;;;;5087933;28;20256;-77
2021/04/06 01:55:02;;;;;;;5.78;0.82;;;;;8.70;101134.00;;;;5070543;28;20198;-77
2021/04/06 01:57:32;;;;;;;4.70;0.82;;;;;8.70;101136.00;;;;5087820;28;20259;-77
2021/04/06 02:00:07;;;;;;;2.75;0.60;;;;;8.60;101141.00;;;;5087781;28;20334;-77
2021/04/06 02:02:37;;;;;;;3.60;0.77;;;;;8.60;101132.00;;;;5088182;28;20611;-77
2021/04/06 02:05:07;;;;;;;2.05;0.60;;;;;8.60;101135.00;;;;5087798;28;20221;-77
2021/04/06 02:07:37;;;;;;;4.93;0.50;;;;;8.60;101136.00;;;;5088341;28;20202;-75
2021/04/06 02:10:06;;;;;;;2.85;0.60;;;;;8.50;101135.00;;;;5080462;28;20583;-75
2021/04/06 02:12:38;;;;;;;4.50;0.50;;;;;8.50;101137.00;;;;5087748;28;20199;-75
2021/04/06 02:15:10;;;;;;;2.45;0.77;;;;;8.50;101143.00;;;;5088430;28;20206;-75
2021/04/06 02:17:47;;;;;;;3.92;0.90;;;;;8.40;101145.00;;;;5083241;28;20205;-75
2021/04/06 02:20:21;;;;;;;4.75;0.73;;;;;8.40;101144.00;;;;5083053;28;20202;-75
2021/04/06 02:22:56;;;;;;;4.90;0.80;;;;;8.40;101140.00;;;;5085125;28;20193;-75
2021/04/06 02:25:23;;;;;;;4.28;0.40;;;;;8.40;101138.00;;;;5087265;28;20221;-75
2021/04/06 02:27:50;;;;;;;3.72;0.60;;;;;8.30;101138.00;;;;5088207;28;20194;-75
2021/04/06 02:30:19;;;;;;;3.38;0.70;;;;;8.30;101147.00;;;;5089306;28;20186;-75
2021/04/06 02:32:45;;;;;;;3.15;0.70;;;;;8.30;101132.00;;;;5087370;28;20259;-75
2021/04/06 02:35:14;;;;;;;2.35;0.40;;;;;8.20;101143.00;;;;5089022;28;20210;-75
2021/04/06 02:37:44;;;;;;;2.90;0.73;;;;;8.20;101142.00;;;;5087773;28;20228;-75
2021/04/06 02:40:12;;;;;;;2.17;0.52;;;;;8.20;101151.00;;;;5087679;28;20189;-75
2021/04/06 02:42:40;;;;;;;3.30;0.50;;;;;8.20;101155.00;;;;5088655;28;20205;-75
2021/04/06 02:45:10;;;;;;;5.70;0.50;;;;;8.20;101147.00;;;;5086443;28;20218;-75
2021/04/06 02:47:41;;;;;;;2.00;0.40;;;;;8.20;101167.00;;;;5087516;28;20237;-75
2021/04/06 02:50:10;;;;;;;4.22;0.50;;;;;8.20;101171.00;;;;5085701;28;20198;-75
2021/04/06 02:52:38;;;;;;;1.70;0.20;;;;;8.20;101157.00;;;;5088527;28;20256;-75
2021/04/06 02:55:07;;;;;;;5.78;0.80;;;;;8.20;101178.00;;;;5088140;28;20292;-75
2021/04/06 02:57:39;;;;;;;4.78;0.65;;;;;8.20;101178.00;;;;5088136;28;20187;-75
2021/04/06 03:00:06;;;;;;;2.80;0.40;;;;;8.10;101178.00;;;;5087903;28;20260;-75
2021/04/06 03:02:39;;;;;;;1.00;0.43;;;;;8.10;101159.00;;;;5088027;28;20202;-76
2021/04/06 03:05:07;;;;;;;1.30;0.60;;;;;8.10;101162.00;;;;5088207;28;20317;-75
2021/04/06 03:07:45;;;;;;;3.22;0.43;;;;;8.00;101152.00;;;;5087776;28;20206;-75
2021/04/06 03:10:19;;;;;;;0.63;0.30;;;;;8.00;101149.00;;;;5087260;28;20226;-75
2021/04/06 03:12:47;;;;;;;2.97;0.35;;;;;8.00;101148.00;;;;5087744;28;20211;-75
2021/04/06 03:15:20;;;;;;;0.70;0.13;;;;;8.00;101152.00;;;;5087946;28;20194;-75
2021/04/06 03:17:51;;;;;;;1.10;0.10;;;;;8.00;101148.00;;;;5087610;28;20640;-75
2021/04/06 03:20:19;;;;;;;1.27;0.38;;;;;8.00;101141.00;;;;5088418;28;20186;-75
2021/04/06 03:22:48;;;;;;;2.47;0.63;;;;;7.90;101145.00;;;;5087596;28;20194;-75
2021/04/06 03:25:16;;;;;;;2.13;0.30;;;;;7.90;101139.00;;;;5087809;28;20218;-75
2021/04/06 03:27:44;;;;;;;3.00;0.52;;;;;7.90;101146.00;;;;5087314;28;20193;-75
2021/04/06 03:30:11;;;;;;;5.18;0.70;;;;;7.80;101146.00;;;;5086088;28;20201;-75
2021/04/06 03:32:39;;;;;;;1.70;0.40;;;;;7.80;101146.00;;;;5088642;28;20217;-75
2021/04/06 03:35:09;;;;;;;2.10;0.43;;;;;7.80;101152.00;;;;5088196;28;20211;-75
2021/04/06 03:37:36;;;;;;;0.85;0.40;;;;;7.80;101155.00;;;;5079106;28;20552;-75
2021/04/06 03:40:05;;;;;;;2.70;0.43;;;;;7.80;101154.00;;;;5079378;28;20203;-75
2021/04/06 03:42:32;;;;;;;1.58;0.40;;;;;7.70;101155.00;;;;5087281;28;20230;-75
2021/04/06 03:45:06;;;;;;;2.67;0.68;;;;;7.70;101150.00;;;;5087290;28;20241;-75
2021/04/06 03:47:52;;;;;;;2.35;0.25;;;;;7.60;101149.00;;;;5086576;28;20659;-75
2021/04/06 03:50:33;;;;;;;2.45;0.38;;;;;7.60;101141.00;;;;5047911;28;20227;-75
2021/04/06 03:53:01;;;;;;;3.83;0.35;;;;;7.70;101140.00;;;;5042603;28;20589;-75
2021/04/06 03:55:27;;;;;;;2.63;0.28;;;;;7.70;101134.00;;;;5047620;28;20198;-75
2021/04/06 03:58:04;;;;;;;2.72;0.40;;;;;7.60;101135.00;;;;5046443;28;20199;-75
2021/04/06 04:00:31;;;;;;;4.13;0.50;;;;;7.70;101134.00;;;;5047074;28;20200;-75
2021/04/06 04:03:00;;;;;;;1.42;0.22;;;;;7.70;101136.00;;;;5047427;28;20199;-75
2021/04/06 04:05:26;;;;;;;1.92;0.40;;;;;7.70;101138.00;;;;5048653;28;20578;-76
2021/04/06 04:07:54;;;;;;;2.05;0.43;;;;;7.70;101136.00;;;;5049808;28;20216;-75
2021/04/06 04:10:21;;;;;;;4.80;0.75;;;;;7.70;101133.00;;;;5050528;28;20241;-75
2021/04/06 04:12:48;;;;;;;2.88;0.88;;;;;7.70;101131.00;;;;5050646;28;20200;-75
2021/04/06 04:15:15;;;;;;;3.40;0.57;;;;;7.70;101143.00;;;;5050318;28;20200;-75
2021/04/06 04:17:42;;;;;;;1.20;0.28;;;;;7.70;101136.00;;;;5047175;28;20208;-75
2021/04/06 04:20:10;;;;;;;1.35;0.50;;;;;7.60;101137.00;;;;5047306;28;20202;-75
2021/04/06 04:22:37;;;;;;;2.17;0.38;;;;;7.60;101135.00;;;;5050600;28;20200;-75
2021/04/06 04:25:06;;;;;;;4.05;0.57;;;;;7.60;101129.00;;;;5049281;28;20705;-75
2021/04/06 04:27:33;;;;;;;3.30;0.50;;;;;7.60;101140.00;;;;5050567;28;20192;-75
2021/04/06 04:30:00;;;;;;;4.25;0.52;;;;;7.60;101139.00;;;;5048874;28;20199;-75
2021/04/06 04:32:26;;;;;;;3.50;0.65;;;;;7.60;101150.00;;;;5050204;28;20191;-75
2021/04/06 04:34:53;;;;;;;1.70;0.47;;;;;7.60;101150.00;;;;5048344;28;20208;-75
2021/04/06 04:37:20;;;;;;;4.57;0.93;;;;;7.60;101147.00;;;;5045070;28;20204;-75
2021/04/06 04:39:47;;;;;;;4.47;0.40;;;;;7.60;101149.00;;;;5041664;28;20192;-75
2021/04/06 04:42:14;;;;;;;4.07;0.40;;;;;7.60;101150.00;;;;5049951;28;20191;-75
2021/04/06 04:44:41;;;;;;;1.75;0.13;;;;;7.60;101142.00;;;;5048496;28;20215;-75
2021/04/06 04:47:08;;;;;;;3.08;0.43;;;;;7.60;101141.00;;;;5049038;28;20206;-75
2021/04/06 04:49:34;;;;;;;2.55;0.32;;;;;7.70;101132.00;;;;5081584;28;20224;-75
2021/04/06 04:52:01;;;;;;;4.68;0.57;;;;;7.70;101136.00;;;;5084793;28;20202;-75
2021/04/06 04:54:28;;;;;;;1.95;0.35;;;;;7.70;101137.00;;;;5072208;28;20198;-75
2021/04/06 04:56:55;;;;;;;3.20;0.45;;;;;7.70;101133.00;;;;5079039;28;20190;-75
2021/04/06 04:59:22;;;;;;;3.30;0.57;;;;;7.60;101141.00;;;;5089160;28;20194;-75
2021/04/06 05:01:49;;;;;;;6.95;0.88;;;;;7.60;101141.00;;;;5076551;28;20215;-75
2021/04/06 05:04:16;;;;;;;2.53;0.20;;;;;7.60;101136.00;;;;5073278;28;20275;-75
2021/04/06 05:06:43;;;;;;;3.55;0.70;;;;;7.60;101146.00;;;;5087198;28;20544;-75
2021/04/06 05:09:09;;;;;;;1.42;0.28;;;;;7.60;101141.00;;;;5077391;28;20256;-75
2021/04/06 05:11:36;;;;;;;4.82;0.90;;;;;7.60;101138.00;;;;5075479;28;20195;-75
2021/04/06 05:14:03;;;;;;;1.67;0.60;;;;;7.60;101137.00;;;;5070440;28;20609;-75
2021/04/06 05:16:31;;;;;;;1.88;0.32;;;;;7.70;101134.00;;;;5088435;28;20202;-75
2021/04/06 05:18:58;;;;;;;3.10;0.90;;;;;7.70;101127.00;;;;5088408;28;20194;-75
2021/04/06 05:21:24;;;;;;;2.03;0.32;;;;;7.70;101134.00;;;;5082062;28;20195;-74
2021/04/06 05:23:53;;;;;;;1.63;0.50;;;;;7.80;101122.00;;;;5088406;28;20222;-74
2021/04/06 05:26:19;;;;;;;3.10;0.57;;;;;7.80;101131.00;;;;5088821;28;20213;-74
2021/04/06 05:28:46;;;;;;;4.03;0.43;;;;;7.80;101130.00;;;;5085340;28;20198;-76
2021/04/06 05:31:13;;;;;;;1.48;0.30;;;;;7.80;101132.00;;;;5082285;28;20198;-75
2021/04/06 05:33:40;;;;;;;2.88;0.63;;;;;7.80;101126.00;;;;5091080;28;20198;-75
2021/04/06 05:36:07;;;;;;;2.92;0.43;;;;;7.80;101126.00;;;;5087599;28;20675;-74
2021/04/06 05:38:34;;;;;;;2.65;0.60;;;;;7.80;101123.00;;;;5085152;28;20242;-73
2021/04/06 05:41:01;;;;;;;3.03;0.25;;;;;7.80;101128.00;;;;5087314;28;20663;-74
2021/04/06 05:43:28;;;;;;;2.72;0.57;;;;;7.80;101133.00;;;;5077879;28;20202;-74
2021/04/06 05:45:55;;;;;;;2.63;0.40;;;;;7.80;101144.00;;;;5068376;28;20210;-75
2021/04/06 05:48:23;;;;;;;1.75;0.65;;;;;7.90;101152.00;;;;5075463;28;20251;-77
2021/04/06 05:50:52;;;;;;;5.30;0.90;;;;;7.90;101158.00;;;;5078489;28;20248;-76
2021/04/06 05:53:20;;;;;;;1.88;0.45;;;;;7.90;101162.00;;;;5084030;28;20225;-76
2021/04/06 05:55:46;;;;;;;3.03;0.30;;;;;8.00;101158.00;;;;5087986;28;20802;-77
2021/04/06 05:58:13;;;;;;;0.82;0.32;;;;;8.00;101158.00;;;;5087853;28;20195;-75
2021/04/06 06:00:40;;;;;;;1.95;0.50;;;;;8.00;101155.00;;;;5088307;28;20614;-77
2021/04/06 06:03:08;;;;;;;1.20;0.30;;;;;8.00;101150.00;;;;5087703;28;20323;-76
2021/04/06 06:05:35;;;;;;;8.10;0.40;;;;;8.00;101154.00;;;;5086265;28;20305;-77
2021/04/06 06:08:07;;;;;;;0.65;0.20;;;;;8.00;101149.00;;;;5067195;28;21398;-77
2021/04/06 06:10:35;;;;;;;1.75;0.20;;;;;8.00;101146.00;;;;5067923;28;20222;-77
2021/04/06 06:13:17;;;;;;;0.68;0.17;;;;;7.90;101145.00;;;;5067193;28;20195;-77
2021/04/06 06:15:59;;;;;;;1.35;0.30;;;;;8.00;101147.00;;;;5073279;28;20205;-77
2021/04/06 06:18:26;;;;;;;0.90;0.32;;;;;8.00;101147.00;;;;5086968;28;20198;-77
2021/04/06 06:20:53;;;;;;;1.25;0.30;;;;;8.00;101146.00;;;;5086020;28;20236;-77
2021/04/06 06:23:22;;;;;;;1.40;0.20;;;;;8.00;101146.00;;;;5087698;28;20676;-77
2021/04/06 06:26:15;;;;;;;1.65;0.20;;;;;8.10;101150.00;;;;5086595;28;20229;-77
2021/04/06 06:29:02;;;;;;;3.58;0.68;;;;;8.20;101159.00;;;;5087857;28;20687;-77
2021/04/06 06:31:39;;;;;;;2.08;0.32;;;;;8.30;101156.00;;;;5088110;28;20198;-77
2021/04/06 06:34:25;;;;;;;4.45;0.65;;;;;8.30;101148.00;;;;5087456;28;20288;-77
2021/04/06 06:37:24;;;;;;;2.15;0.30;;;;;8.40;101148.00;;;;5087168;28;20260;-78
2021/04/06 06:40:00;;;;;;;2.67;0.25;;;;;8.50;101170.00;;;;5012796;28;20207;-75
2021/04/06 06:42:30;;;;;;;1.98;0.30;;;;;8.60;101160.00;;;;5072284;28;20648;-75
2021/04/06 06:44:58;;;;;;;1.25;0.38;;;;;8.60;101162.00;;;;5069848;28;20565;-74
2021/04/06 06:47:26;;;;;;;3.90;0.80;;;;;8.70;101158.00;;;;5087561;28;20248;-74
2021/04/06 06:49:55;;;;;;;1.92;0.17;;;;;8.70;101153.00;;;;5087944;28;20246;-74
2021/04/06 06:52:30;;;;;;;1.50;0.77;;;;;8.70;101153.00;;;;5087245;28;20774;-74
2021/04/06 06:55:02;;;;;;;2.10;0.30;;;;;8.70;101165.00;;;;5087776;28;20616;-74
2021/04/06 06:57:33;;;;;;;3.20;0.45;;;;;8.80;101167.00;;;;5088261;28;20190;-74
2021/04/06 07:00:08;;;;;;;1.58;0.55;;;;;8.80;101186.00;;;;5084993;28;20205;-74
2021/04/06 07:02:35;;;;;;;2.90;0.40;;;;;8.90;101171.00;;;;5088056;28;20580;-76
2021/04/06 07:05:22;;;;;;;0.57;0.28;;;;;8.80;101176.00;;;;5085232;28;20595;-74
2021/04/06 07:08:01;;;;;;;3.80;0.40;;;;;8.80;101174.00;;;;5085376;28;20570;-75
2021/04/06 07:10:31;;;;;;;2.10;0.30;;;;;8.80;101170.00;;;;5084125;28;20208;-76
2021/04/06 07:13:15;;;;;;;3.10;0.40;;;;;8.70;101165.00;;;;5088074;28;20719;-76
2021/04/06 07:15:43;;;;;;;5.07;0.32;;;;;8.80;101162.00;;;;5086133;28;20205;-76
2021/04/06 07:18:15;;;;;;;2.38;0.40;;;;;8.90;101172.00;;;;5087888;28;20194;-76
2021/04/06 07:20:44;;;;;;;0.98;0.28;;;;;9.00;101163.00;;;;5087746;28;20226;-75
2021/04/06 07:23:17;;;;;;;0.82;0.32;;;;;9.00;101183.00;;;;5087531;28;20202;-75
2021/04/06 07:25:46;;;;;;;5.82;0.70;;;;;9.10;101182.00;;;;5086715;28;20254;-75
2021/04/06 07:28:16;;;;;;;5.22;0.70;;;;;9.10;101176.00;;;;5087148;28;20316;-76
2021/04/06 07:30:44;;;;;;;0.75;0.20;;;;;9.10;101167.00;;;;5087295;28;20206;-75
2021/04/06 07:33:13;;;;;;;2.03;0.30;;;;;9.10;101173.00;;;;5086698;28;20585;-75
2021/04/06 07:35:41;;;;;;;2.60;0.68;;;;;9.10;101161.00;;;;5087160;28;20198;-76
2021/04/06 07:38:08;;;;;;;1.55;0.30;;;;;9.10;101157.00;;;;5079559;28;20945;-76
2021/04/06 07:40:36;;;;;;;1.85;0.50;;;;;9.10;101160.00;;;;5087267;28;20194;-76
2021/04/06 07:43:06;;;;;;;2.47;0.20;;;;;9.10;101164.00;;;;5085919;28;20202;-75
2021/04/06 07:45:38;;;;;;;0.85;0.20;;;;;9.20;101148.00;;;;5090984;28;20221;-75
2021/04/06 07:48:07;;;;;;;0.47;0.20;;;;;9.30;101145.00;;;;5083939;28;20234;-76
2021/04/06 07:50:40;;;;;;;0.98;0.30;;;;;9.30;101154.00;;;;5082437;28;20201;-75
2021/04/06 07:53:31;;;;;;;3.88;0.30;;;;;9.30;101152.00;;;;5078690;28;20610;-75
2021/04/06 07:56:01;;;;;;;2.60;0.22;;;;;9.50;101160.00;;;;5066458;28;20197;-75
2021/04/06 07:58:48;;;;;;;1.63;0.20;;;;;9.50;101160.00;;;;5090947;28;20256;-75
2021/04/06 08:01:19;;;;;;;1.20;0.20;;;;;9.50;101172.00;;;;5090627;28;20206;-75
2021/04/06 08:04:06;;;;;;;2.42;0.50;;;;;9.50;101164.00;;;;5088987;28;20210;-76
2021/04/06 08:06:44;;;;;;;1.00;0.50;;;;;9.50;101163.00;;;;5081843;28;20244;-76
2021/04/06 08:09:37;;;;;;;1.05;0.20;;;;;9.40;101156.00;;;;5088820;28;20251;-76
2021/04/06 08:12:06;;;;;;;1.23;0.20;;;;;9.40;101156.00;;;;5084381;28;20202;-76
2021/04/06 08:14:36;;;;;;;0.55;0.20;;;;;9.50;101158.00;;;;5086232;28;20290;-76
2021/04/06 08:17:44;;;;;;;0.30;0.00;;;;;9.40;101154.00;;;;5089491;28;20493;-76
2021/04/06 08:20:23;;;;;;;0.13;0.00;;;;;9.50;101141.00;;;;5083789;28;20194;-75
2021/04/06 08:22:53;;;;;;;1.27;0.20;;;;;9.50;101131.00;;;;5089183;28;20205;-77
2021/04/06 08:25:39;;;;;;;0.75;0.10;;;;;9.50;101141.00;;;;5090012;28;20639;-76
2021/04/06 08:28:29;;;;;;;1.95;0.00;;;;;9.60;101137.00;;;;5085449;28;20735;-76
2021/04/06 08:31:16;;;;;;;1.33;0.10;;;;;9.60;101137.00;;;;5089218;28;20981;-76
2021/04/06 08:33:42;;;;;;;0.22;0.10;;;;;9.80;101138.00;;;;5088938;28;20187;-76
2021/04/06 08:36:09;;;;;;;2.65;0.20;;;;;9.80;101136.00;;;;5088425;28;20613;-76
2021/04/06 08:38:46;;;;;;;1.45;0.20;;;;;9.80;101126.00;;;;5082922;28;20194;-76
2021/04/06 08:41:30;;;;;;;2.40;0.40;;;;;9.90;101132.00;;;;5090134;28;20574;-76
2021/04/06 08:43:59;;;;;;;2.53;0.45;;;;;10.00;101137.00;;;;5085726;28;20206;-76
2021/04/06 08:46:40;;;;;;;2.80;0.80;;;;;10.00;101142.00;;;;5086664;28;20214;-74
2021/04/06 08:49:12;;;;;;;1.45;0.60;;;;;10.00;101142.00;;;;5085770;28;20256;-75
2021/04/06 08:51:41;;;;;;;2.58;0.43;;;;;10.10;101131.00;;;;5089027;28;20202;-76
2021/04/06 08:54:10;;;;;;;0.70;0.40;;;;;10.20;101127.00;;;;5089308;28;20198;-76
2021/04/06 08:56:38;;;;;;;1.67;0.38;;;;;10.30;101118.00;;;;5090255;28;20596;-76
2021/04/06 08:59:19;;;;;;;1.73;0.47;;;;;10.40;101124.00;;;;5088566;28;20632;-77
2021/04/06 09:01:53;;;;;;;0.90;0.35;;;;;10.60;101116.00;;;;5085925;28;20247;-77
2021/04/06 09:04:22;;;;;;;2.63;0.47;;;;;10.80;101103.00;;;;5086330;28;20257;-77
2021/04/06 09:06:49;;;;;;;2.60;0.52;;;;;11.10;101102.00;;;;5088478;28;20578;-77
2021/04/06 09:09:19;;;;;;;3.85;0.55;;;;;11.20;101103.00;;;;5082554;28;20231;-77
2021/04/06 09:11:47;;;;;;;1.85;0.50;;;;;11.30;101109.00;;;;5077498;28;20201;-76
2021/04/06 09:14:15;;;;;;;0.52;0.30;;;;;11.30;101127.00;;;;5089484;28;20198;-77
2021/04/06 09:16:42;;;;;;;2.38;0.50;;;;;11.20;101124.00;;;;5088810;28;20206;-76
2021/04/06 09:19:11;;;;;;;0.63;0.40;;;;;11.10;101121.00;;;;5085161;28;20202;-77
2021/04/06 09:21:40;;;;;;;2.10;0.20;;;;;11.00;101119.00;;;;5078832;28;20193;-76
2021/04/06 09:24:10;;;;;;;2.45;0.40;;;;;10.90;101123.00;;;;5087441;28;20194;-76
2021/04/06 09:26:38;;;;;;;2.22;0.45;;;;;10.80;101125.00;;;;5088272;28;20208;-76
2021/04/06 09:29:13;;;;;;;1.85;0.47;;;;;10.70;101110.00;;;;5081289;28;20259;-76
2021/04/06 09:31:42;;;;;;;1.10;0.40;;;;;10.70;101116.00;;;;5087685;28;20213;-76
2021/04/06 09:34:14;;;;;;;1.27;0.22;;;;;10.60;101122.00;;;;5089319;28;20209;-76
2021/04/06 09:36:42;;;;;;;2.03;0.35;;;;;10.70;101109.00;;;;5088985;28;20206;-76
2021/04/06 09:39:10;;;;;;;2.20;0.47;;;;;10.70;101110.00;;;;5087743;28;20648;-76
2021/04/06 09:41:40;;;;;;;3.00;0.70;;;;;10.80;101100.00;;;;5087243;28;20198;-77
2021/04/06 09:44:10;;;;;;;3.00;0.43;;;;;10.90;101094.00;;;;5082361;28;20191;-77
2021/04/06 09:46:41;;;;;;;5.90;0.82;;;;;11.10;101089.00;;;;5085326;28;20239;-77
2021/04/06 09:49:08;;;;;;;1.58;0.30;;;;;11.20;101082.00;;;;5084811;28;20402;-77
2021/04/06 09:51:36;;;;;;;1.40;0.43;;;;;11.30;101088.00;;;;5087780;28;20259;-77
2021/04/06 09:54:05;;;;;;;3.15;0.70;;;;;11.40;101089.00;;;;5088544;28;20272;-77
2021/04/06 09:56:34;;;;;;;1.95;0.45;;;;;11.40;101082.00;;;;5084132;28;20202;-76
2021/04/06 09:59:02;;;;;;;1.10;0.45;;;;;11.50;101090.00;;;;5072300;28;20818;-76
2021/04/06 10:01:29;;;;;;;3.22;0.80;;;;;11.50;101089.00;;;;5088194;28;20246;-76
2021/04/06 10:03:57;;;;;;;3.10;0.57;;;;;11.50;101106.00;;;;5087782;28;20729;-76
2021/04/06 10:06:36;;;;;;;1.88;0.47;;;;;11.40;101137.00;;;;5087936;28;20206;-76
2021/04/06 10:09:21;;;;;;;2.30;0.30;;;;;11.10;101139.00;;;;5081665;28;20279;-76
2021/04/06 10:11:49;;;;;;;0.85;0.10;;;;;11.00;101145.00;;;;5088772;28;20202;-76
2021/04/06 10:14:16;;;;;;;0.10;0.00;;;;;10.80;101160.00;;;;5089373;28;20254;-76
2021/04/06 10:16:43;;;;;;;0.10;0.00;;;;;10.60;101129.00;;;;5087748;28;20214;-76
2021/04/06 10:19:21;;;;;;;1.27;0.10;;;;;10.30;101107.00;;;;5087740;28;20973;-77
2021/04/06 10:22:00;;;;;;;0.22;0.10;;;;;10.10;101106.00;;;;5087592;28;20201;-76
2021/04/06 10:24:28;;;;;;;1.65;0.40;;;;;10.10;101101.00;;;;5077075;28;20218;-77
2021/04/06 10:27:10;;;;;;;1.15;0.35;;;;;9.90;101100.00;;;;5087728;28;20244;-77
2021/04/06 10:29:37;;;;;;;0.52;0.10;;;;;10.00;101085.00;;;;5088883;28;20202;-77
2021/04/06 10:32:06;;;;;;;0.88;0.20;;;;;10.10;101076.00;;;;5082212;28;20255;-77
2021/04/06 10:34:33;;;;;;;2.15;0.50;;;;;10.20;101072.00;;;;5088167;28;20567;-76
2021/04/06 10:37:03;;;;;;;1.05;0.35;;;;;10.30;101069.00;;;;5084579;28;20210;-76
2021/04/06 10:39:37;;;;;;;1.77;0.50;;;;;10.50;101064.00;;;;5076637;28;20213;-78
2021/04/06 10:42:05;;;;;;;2.20;0.38;;;;;10.70;101042.00;;;;5079949;28;20232;-77
2021/04/06 10:44:32;;;;;;;1.30;0.40;;;;;10.90;101039.00;;;;5088064;28;20227;-77
2021/04/06 10:46:59;;;;;;;2.58;0.60;;;;;11.10;101039.00;;;;5087012;28;20199;-76
2021/04/06 10:49:25;;;;;;;2.58;0.50;;;;;11.20;101046.00;;;;5087707;28;20298;-77
2021/04/06 10:51:56;;;;;;;1.10;0.20;;;;;11.20;101049.00;;;;5087424;28;20230;-76
2021/04/06 10:54:24;;;;;;;1.65;0.47;;;;;11.30;101057.00;;;;5087959;28;20206;-76
2021/04/06 10:56:54;;;;;;;0.40;0.20;;;;;11.30;101055.00;;;;5086158;28;20206;-76
2021/04/06 10:59:31;;;;;;;0.50;0.30;;;;;11.30;101061.00;;;;5082215;28;20579;-76
2021/04/06 11:01:59;;;;;;;1.20;0.43;;;;;11.30;101052.00;;;;5086347;28;20197;-76
2021/04/06 11:04:28;;;;;;;2.85;0.45;;;;;11.40;101049.00;;;;5087032;28;20236;-76
2021/04/06 11:06:57;;;;;;;2.58;0.38;;;;;11.40;101041.00;;;;5087116;28;20206;-76
2021/04/06 11:09:27;;;;;;;0.70;0.40;;;;;11.40;101043.00;;;;5085339;28;20205;-77
2021/04/06 11:11:55;;;;;;;1.20;0.30;;;;;11.50;101052.00;;;;5087771;28;20202;-76
2021/04/06 11:14:25;;;;;;;1.65;0.52;;;;;11.50;101038.00;;;;5090974;28;20284;-76
2021/04/06 11:16:53;;;;;;;1.95;0.20;;;;;11.70;101037.00;;;;5091328;28;20198;-76
2021/04/06 11:19:25;;;;;;;1.67;0.43;;;;;11.80;101030.00;;;;5088166;28;20234;-76
2021/04/06 11:21:58;;;;;;;1.45;0.35;;;;;11.90;101039.00;;;;5083037;28;20552;-77
2021/04/06 11:24:28;;;;;;;1.70;0.45;;;;;11.90;101047.00;;;;5088571;28;20221;-76
2021/04/06 11:26:56;;;;;;;3.95;0.40;;;;;12.00;101059.00;;;;5087851;28;20288;-76
2021/04/06 11:29:24;;;;;;;1.52;0.20;;;;;12.00;101048.00;;;;5090899;28;20242;-76
2021/04/06 11:31:55;;;;;;;1.63;0.30;;;;;12.00;101037.00;;;;5080998;28;20210;-76
2021/04/06 11:34:22;;;;;;;1.05;0.13;;;;;12.00;101045.00;;;;5085973;28;20190;-76
2021/04/06 11:36:49;;;;;;;1.95;0.45;;;;;12.00;101041.00;;;;5083430;28;20222;-76
2021/04/06 11:39:20;;;;;;;1.70;0.63;;;;;12.00;101034.00;;;;5090029;28;20206;-76
2021/04/06 11:41:48;;;;;;;4.65;0.45;;;;;11.90;101054.00;;;;5090836;28;20202;-76
2021/04/06 11:44:16;;;;;;;1.95;0.43;;;;;11.80;101045.00;;;;5087069;28;20213;-77
2021/04/06 11:46:44;;;;;;;0.85;0.20;;;;;11.70;101047.00;;;;5089874;28;20194;-76
2021/04/06 11:49:12;;;;;;;1.58;0.50;;;;;11.60;101063.00;;;;5089264;28;20715;-76
2021/04/06 11:51:40;;;;;;;1.73;0.35;;;;;11.40;101052.00;;;;5080779;28;20645;-76
2021/04/06 11:54:09;;;;;;;2.30;0.30;;;;;11.30;101046.00;;;;5089706;28;20256;-76
2021/04/06 11:56:36;;;;;;;2.45;0.57;;;;;11.20;101044.00;;;;5090551;28;20198;-77
2021/04/06 11:59:04;;;;;;;1.10;0.30;;;;;11.10;101028.00;;;;5089828;28;20198;-76
2021/04/06 12:01:32;;;;;;;1.83;0.22;;;;;11.10;101027.00;;;;5089780;28;20214;-76
2021/04/06 12:03:59;;;;;;;1.10;0.30;;;;;11.00;101019.00;;;;5089297;28;20216;-76
2021/04/06 12:06:26;;;;;;;0.57;0.20;;;;;11.00;101016.00;;;;5082457;28;20222;-76
2021/04/06 12:08:53;;;;;;;1.02;0.20;;;;;11.10;101015.00;;;;5089111;28;20194;-76
2021/04/06 12:11:20;;;;;;;3.45;0.40;;;;;11.20;101015.00;;;;5090819;28;20198;-76
2021/04/06 12:13:47;;;;;;;1.20;0.20;;;;;11.30;101012.00;;;;5090171;28;20210;-75
2021/04/06 12:16:15;;;;;;;1.17;0.20;;;;;11.30;101009.00;;;;5091606;28;20202;-76
2021/04/06 12:18:42;;;;;;;0.50;0.20;;;;;11.50;101006.00;;;;5090848;28;20198;-76
2021/04/06 12:21:09;;;;;;;1.50;0.45;;;;;11.70;101009.00;;;;5089360;28;20217;-76
2021/04/06 12:23:36;;;;;;;2.88;0.80;;;;;11.80;101007.00;;;;5089608;28;20202;-76
2021/04/06 12:26:04;;;;;;;2.83;0.30;;;;;12.00;101019.00;;;;5082674;28;20226;-76
2021/04/06 12:28:30;;;;;;;2.00;0.40;;;;;12.00;101022.00;;;;5087112;28;20264;-75